ITY1592 LIEE-LIRF
Flight info
| Callsign | ITY1592 |
|---|---|
| Flight time | 0h 44m |
| Altitude | 18000 |
| Route | KOVAS Q125 DEXUL DCT ABIDU DCT TINTO DCT VALMA |
| Aircraft | A20N/M-SDE2E3FGHIRWXY/LB1 |
Departure
| Time | 2026-05-07 18:13 |
|---|---|
| Airport | Cagliari Elmas Airport (LIEE) |
Arrival
| Time | 2026-05-07 18:58 |
|---|---|
| Airport | Rome–Fiumicino Leonardo da Vinci International Airport (LIRF) |
| Time | Latitude | Longitude | Altitude | Speed | Heading |
|---|---|---|---|---|---|
| 2026-05-07 17:43 | 39.25238 | 9.05894 | 19 ft | 0 kts | 10° |
| 2026-05-07 18:05 | 39.25236 | 9.05894 | 19 ft | 0 kts | 8° |
| 2026-05-07 18:05 | 39.25230 | 9.05889 | 19 ft | 2 kts | 59° |
| 2026-05-07 18:05 | 39.25222 | 9.05874 | 18 ft | 2 kts | 41° |
| 2026-05-07 18:05 | 39.25211 | 9.05860 | 17 ft | 2 kts | 48° |
| 2026-05-07 18:06 | 39.25201 | 9.05846 | 17 ft | 2 kts | 45° |
| 2026-05-07 18:06 | 39.25196 | 9.05840 | 17 ft | 0 kts | 45° |
| 2026-05-07 18:06 | 39.25192 | 9.05837 | 17 ft | 0 kts | 345° |
| 2026-05-07 18:06 | 39.25188 | 9.05839 | 17 ft | 1 kts | 306° |
| 2026-05-07 18:07 | 39.25185 | 9.05845 | 17 ft | 0 kts | 316° |
| 2026-05-07 18:09 | 39.25186 | 9.05843 | 17 ft | 1 kts | 317° |
| 2026-05-07 18:09 | 39.25221 | 9.05801 | 16 ft | 12 kts | 317° |
| 2026-05-07 18:10 | 39.25297 | 9.05713 | 15 ft | 15 kts | 318° |
| 2026-05-07 18:10 | 39.25377 | 9.05613 | 13 ft | 16 kts | 304° |
| 2026-05-07 18:10 | 39.25410 | 9.05462 | 10 ft | 18 kts | 284° |
| 2026-05-07 18:10 | 39.25480 | 9.05316 | 8 ft | 19 kts | 314° |
| 2026-05-07 18:11 | 39.25577 | 9.05195 | 9 ft | 19 kts | 320° |
| 2026-05-07 18:11 | 39.25644 | 9.05121 | 9 ft | 18 kts | 319° |
| 2026-05-07 18:11 | 39.25772 | 9.04976 | 11 ft | 17 kts | 318° |
| 2026-05-07 18:11 | 39.25867 | 9.04866 | 11 ft | 19 kts | 317° |
| 2026-05-07 18:12 | 39.25972 | 9.04743 | 11 ft | 20 kts | 319° |
| 2026-05-07 18:12 | 39.26079 | 9.04621 | 13 ft | 19 kts | 319° |
| 2026-05-07 18:12 | 39.26129 | 9.04518 | 11 ft | 14 kts | 278° |
| 2026-05-07 18:12 | 39.26102 | 9.04385 | 7 ft | 17 kts | 213° |
| 2026-05-07 18:13 | 39.25975 | 9.04473 | 9 ft | 45 kts | 138° |
| 2026-05-07 18:13 | 39.25546 | 9.04972 | 9 ft | 118 kts | 138° |
| 2026-05-07 18:13 | 39.24795 | 9.05855 | 135 ft | 164 kts | 136° |
| 2026-05-07 18:13 | 39.23932 | 9.06883 | 720 ft | 172 kts | 135° |
| 2026-05-07 18:14 | 39.23043 | 9.07936 | 1419 ft | 180 kts | 136° |
| 2026-05-07 18:14 | 39.22080 | 9.08969 | 2179 ft | 183 kts | 136° |
| 2026-05-07 18:14 | 39.21110 | 9.10013 | 2871 ft | 188 kts | 137° |
| 2026-05-07 18:14 | 39.20064 | 9.11022 | 3593 ft | 192 kts | 142° |
| 2026-05-07 18:15 | 39.18858 | 9.11755 | 4286 ft | 201 kts | 163° |
| 2026-05-07 18:15 | 39.17417 | 9.11720 | 4954 ft | 215 kts | 191° |
| 2026-05-07 18:15 | 39.16099 | 9.10752 | 5557 ft | 233 kts | 216° |
| 2026-05-07 18:15 | 39.14879 | 9.09227 | 6082 ft | 253 kts | 225° |
| 2026-05-07 18:16 | 39.13848 | 9.07315 | 6689 ft | 271 kts | 246° |
| 2026-05-07 18:16 | 39.13552 | 9.04918 | 7367 ft | 285 kts | 277° |
| 2026-05-07 18:16 | 39.14318 | 9.02572 | 8177 ft | 289 kts | 311° |
| 2026-05-07 18:16 | 39.15828 | 9.00873 | 8921 ft | 294 kts | 327° |
| 2026-05-07 18:17 | 39.17506 | 8.99377 | 9714 ft | 300 kts | 327° |
| 2026-05-07 18:17 | 39.19188 | 8.97753 | 10533 ft | 305 kts | 323° |
| 2026-05-07 18:17 | 39.20827 | 8.96011 | 11350 ft | 308 kts | 320° |
| 2026-05-07 18:17 | 39.22463 | 8.94275 | 12125 ft | 311 kts | 328° |
| 2026-05-07 18:18 | 39.24438 | 8.93130 | 12881 ft | 313 kts | 347° |
| 2026-05-07 18:18 | 39.26627 | 8.92773 | 13379 ft | 326 kts | 358° |
| 2026-05-07 18:18 | 39.28969 | 8.92646 | 13754 ft | 343 kts | 359° |
| 2026-05-07 18:18 | 39.31409 | 8.92532 | 14080 ft | 361 kts | 358° |
| 2026-05-07 18:19 | 39.33988 | 8.92382 | 14381 ft | 379 kts | 357° |
| 2026-05-07 18:19 | 39.36666 | 8.92202 | 14670 ft | 395 kts | 357° |
| 2026-05-07 18:19 | 39.39455 | 8.92005 | 15111 ft | 406 kts | 357° |
| 2026-05-07 18:19 | 39.42291 | 8.92207 | 15723 ft | 411 kts | 9° |
| 2026-05-07 18:20 | 39.45052 | 8.93202 | 16358 ft | 415 kts | 21° |
| 2026-05-07 18:20 | 39.47639 | 8.94850 | 16939 ft | 419 kts | 28° |
| 2026-05-07 18:20 | 39.50200 | 8.96703 | 17489 ft | 425 kts | 29° |
| 2026-05-07 18:20 | 39.52761 | 8.98588 | 18071 ft | 429 kts | 29° |
| 2026-05-07 18:21 | 39.55387 | 9.00500 | 18601 ft | 434 kts | 28° |
| 2026-05-07 18:21 | 39.58020 | 9.02396 | 19178 ft | 437 kts | 28° |
| 2026-05-07 18:21 | 39.60700 | 9.04315 | 19689 ft | 442 kts | 28° |
| 2026-05-07 18:21 | 39.63474 | 9.06113 | 20182 ft | 447 kts | 23° |
| 2026-05-07 18:22 | 39.66387 | 9.07606 | 20697 ft | 450 kts | 18° |
| 2026-05-07 18:22 | 39.68384 | 9.08410 | 21018 ft | 453 kts | 14° |
| 2026-05-07 18:22 | 39.72473 | 9.09802 | 21687 ft | 457 kts | 12° |
| 2026-05-07 18:22 | 39.75547 | 9.10801 | 22177 ft | 461 kts | 12° |
| 2026-05-07 18:23 | 39.78669 | 9.11825 | 22654 ft | 465 kts | 12° |
| 2026-05-07 18:23 | 39.81813 | 9.12877 | 23128 ft | 468 kts | 13° |
| 2026-05-07 18:23 | 39.84884 | 9.14306 | 23568 ft | 475 kts | 22° |
| 2026-05-07 18:23 | 39.87779 | 9.16342 | 24064 ft | 479 kts | 32° |
| 2026-05-07 18:24 | 39.90475 | 9.18937 | 24713 ft | 479 kts | 38° |
| 2026-05-07 18:24 | 39.93021 | 9.21656 | 25402 ft | 477 kts | 39° |
| 2026-05-07 18:24 | 39.95560 | 9.24421 | 26035 ft | 476 kts | 39° |
| 2026-05-07 18:24 | 39.98081 | 9.27167 | 26615 ft | 476 kts | 39° |
| 2026-05-07 18:25 | 40.00628 | 9.29927 | 27248 ft | 474 kts | 39° |
| 2026-05-07 18:25 | 40.03162 | 9.32659 | 27848 ft | 473 kts | 38° |
| 2026-05-07 18:25 | 40.05696 | 9.35383 | 28358 ft | 473 kts | 38° |
| 2026-05-07 18:25 | 40.08236 | 9.38111 | 28787 ft | 475 kts | 38° |
| 2026-05-07 18:26 | 40.10801 | 9.40863 | 29141 ft | 479 kts | 38° |
| 2026-05-07 18:26 | 40.13371 | 9.43606 | 29491 ft | 481 kts | 38° |
| 2026-05-07 18:26 | 40.15958 | 9.46372 | 29864 ft | 483 kts | 38° |
| 2026-05-07 18:27 | 40.21200 | 9.51998 | 29969 ft | 488 kts | 38° |
| 2026-05-07 18:27 | 40.26420 | 9.57626 | 29972 ft | 487 kts | 37° |
| 2026-05-07 18:28 | 40.31651 | 9.63279 | 29967 ft | 488 kts | 37° |
| 2026-05-07 18:28 | 40.36851 | 9.68929 | 29960 ft | 487 kts | 38° |
| 2026-05-07 18:29 | 40.42068 | 9.74620 | 29962 ft | 487 kts | 38° |
| 2026-05-07 18:29 | 40.47281 | 9.80304 | 29958 ft | 487 kts | 38° |
| 2026-05-07 18:30 | 40.52468 | 9.85959 | 29958 ft | 487 kts | 37° |
| 2026-05-07 18:30 | 40.57679 | 9.91655 | 29962 ft | 489 kts | 37° |
| 2026-05-07 18:31 | 40.62901 | 9.97373 | 29959 ft | 489 kts | 37° |
| 2026-05-07 18:31 | 40.68125 | 10.03105 | 29958 ft | 490 kts | 37° |
| 2026-05-07 18:32 | 40.73363 | 10.08862 | 29962 ft | 490 kts | 37° |
| 2026-05-07 18:32 | 40.78542 | 10.14568 | 29960 ft | 489 kts | 37° |
| 2026-05-07 18:33 | 40.83774 | 10.20342 | 29961 ft | 489 kts | 37° |
| 2026-05-07 18:33 | 40.88979 | 10.26100 | 29960 ft | 489 kts | 37° |
| 2026-05-07 18:34 | 40.94186 | 10.31877 | 29961 ft | 489 kts | 37° |
| 2026-05-07 18:34 | 40.99311 | 10.37791 | 29960 ft | 490 kts | 41° |
| 2026-05-07 18:35 | 41.04035 | 10.44280 | 29960 ft | 491 kts | 45° |
| 2026-05-07 18:35 | 41.08677 | 10.50892 | 29959 ft | 491 kts | 45° |
| 2026-05-07 18:36 | 41.13358 | 10.57527 | 29959 ft | 492 kts | 44° |
| 2026-05-07 18:36 | 41.18048 | 10.64156 | 29960 ft | 492 kts | 44° |
| 2026-05-07 18:37 | 41.22713 | 10.70805 | 29758 ft | 485 kts | 45° |
| 2026-05-07 18:37 | 41.24981 | 10.74050 | 28796 ft | 480 kts | 45° |
| 2026-05-07 18:37 | 41.27229 | 10.77263 | 27232 ft | 482 kts | 45° |
| 2026-05-07 18:37 | 41.29483 | 10.80485 | 26458 ft | 477 kts | 45° |
| 2026-05-07 18:38 | 41.31750 | 10.83728 | 25921 ft | 479 kts | 45° |
| 2026-05-07 18:38 | 41.33990 | 10.86932 | 25258 ft | 486 kts | 45° |
| 2026-05-07 18:38 | 41.36309 | 10.90254 | 24506 ft | 487 kts | 45° |
| 2026-05-07 18:38 | 41.38589 | 10.93524 | 23840 ft | 482 kts | 45° |
| 2026-05-07 18:39 | 41.40866 | 10.96795 | 23266 ft | 476 kts | 45° |
| 2026-05-07 18:39 | 41.43081 | 10.99982 | 22688 ft | 472 kts | 46° |
| 2026-05-07 18:39 | 41.45294 | 11.03180 | 22123 ft | 467 kts | 47° |
| 2026-05-07 18:39 | 41.47242 | 11.06572 | 21570 ft | 464 kts | 56° |
| 2026-05-07 18:40 | 41.48809 | 11.10310 | 21027 ft | 459 kts | 65° |
| 2026-05-07 18:40 | 41.50002 | 11.14206 | 20494 ft | 455 kts | 69° |
| 2026-05-07 18:40 | 41.51088 | 11.18133 | 19952 ft | 450 kts | 70° |
| 2026-05-07 18:40 | 41.52148 | 11.22039 | 19473 ft | 445 kts | 70° |
| 2026-05-07 18:41 | 41.53198 | 11.25875 | 19018 ft | 441 kts | 70° |
| 2026-05-07 18:41 | 41.54246 | 11.29663 | 18799 ft | 438 kts | 70° |
| 2026-05-07 18:41 | 41.55302 | 11.33462 | 18643 ft | 438 kts | 70° |
| 2026-05-07 18:41 | 41.56365 | 11.37272 | 18499 ft | 436 kts | 70° |
| 2026-05-07 18:42 | 41.57422 | 11.41059 | 18337 ft | 435 kts | 70° |
| 2026-05-07 18:42 | 41.58469 | 11.44798 | 18068 ft | 433 kts | 70° |
| 2026-05-07 18:42 | 41.59532 | 11.48557 | 17661 ft | 427 kts | 70° |
| 2026-05-07 18:42 | 41.60631 | 11.52171 | 17015 ft | 423 kts | 63° |
| 2026-05-07 18:43 | 41.62376 | 11.55239 | 16022 ft | 415 kts | 41° |
| 2026-05-07 18:43 | 41.64645 | 11.57510 | 14897 ft | 406 kts | 33° |
| 2026-05-07 18:43 | 41.66953 | 11.59532 | 13670 ft | 399 kts | 33° |
| 2026-05-07 18:43 | 41.69219 | 11.61548 | 12464 ft | 391 kts | 34° |
| 2026-05-07 18:44 | 41.71405 | 11.63576 | 11504 ft | 377 kts | 35° |
| 2026-05-07 18:44 | 41.73504 | 11.65582 | 10675 ft | 361 kts | 37° |
| 2026-05-07 18:44 | 41.75465 | 11.67504 | 10080 ft | 341 kts | 37° |
| 2026-05-07 18:44 | 41.77287 | 11.69315 | 9984 ft | 309 kts | 38° |
| 2026-05-07 18:45 | 41.78962 | 11.70986 | 9841 ft | 298 kts | 38° |
| 2026-05-07 18:45 | 41.80605 | 11.72632 | 9570 ft | 293 kts | 38° |
| 2026-05-07 18:45 | 41.82220 | 11.74254 | 9283 ft | 291 kts | 38° |
| 2026-05-07 18:45 | 41.83830 | 11.75871 | 9003 ft | 290 kts | 38° |
| 2026-05-07 18:46 | 41.85448 | 11.77497 | 8702 ft | 288 kts | 38° |
| 2026-05-07 18:46 | 41.87041 | 11.79096 | 8289 ft | 286 kts | 38° |
| 2026-05-07 18:46 | 41.88612 | 11.80675 | 7892 ft | 277 kts | 38° |
| 2026-05-07 18:46 | 41.90097 | 11.82167 | 7615 ft | 263 kts | 38° |
| 2026-05-07 18:47 | 41.91526 | 11.83606 | 7352 ft | 253 kts | 38° |
| 2026-05-07 18:47 | 41.92926 | 11.85015 | 7085 ft | 248 kts | 38° |
| 2026-05-07 18:47 | 41.94283 | 11.86384 | 6822 ft | 244 kts | 38° |
| 2026-05-07 18:47 | 41.95648 | 11.87762 | 6563 ft | 243 kts | 38° |
| 2026-05-07 18:48 | 41.96988 | 11.89113 | 6302 ft | 242 kts | 38° |
| 2026-05-07 18:48 | 41.98320 | 11.90457 | 6040 ft | 240 kts | 38° |
| 2026-05-07 18:48 | 41.99656 | 11.91806 | 5785 ft | 239 kts | 38° |
| 2026-05-07 18:48 | 42.00990 | 11.93153 | 5513 ft | 238 kts | 38° |
| 2026-05-07 18:49 | 42.02306 | 11.94483 | 5270 ft | 239 kts | 38° |
| 2026-05-07 18:49 | 42.03635 | 11.95827 | 5118 ft | 237 kts | 38° |
| 2026-05-07 18:49 | 42.04931 | 11.97139 | 4955 ft | 233 kts | 37° |
| 2026-05-07 18:49 | 42.06219 | 11.98442 | 4614 ft | 231 kts | 37° |
| 2026-05-07 18:50 | 42.07526 | 11.99768 | 4475 ft | 237 kts | 37° |
| 2026-05-07 18:50 | 42.08821 | 12.01080 | 4341 ft | 227 kts | 37° |
| 2026-05-07 18:50 | 42.10029 | 12.02337 | 4288 ft | 216 kts | 44° |
| 2026-05-07 18:50 | 42.10766 | 12.04073 | 4211 ft | 213 kts | 83° |
| 2026-05-07 18:51 | 42.10519 | 12.06008 | 3987 ft | 216 kts | 120° |
| 2026-05-07 18:51 | 42.09534 | 12.07544 | 3755 ft | 216 kts | 133° |
| 2026-05-07 18:51 | 42.08475 | 12.09011 | 3511 ft | 223 kts | 131° |
| 2026-05-07 18:51 | 42.07407 | 12.10510 | 3272 ft | 225 kts | 136° |
| 2026-05-07 18:52 | 42.06171 | 12.11833 | 3026 ft | 224 kts | 146° |
| 2026-05-07 18:52 | 42.04789 | 12.12788 | 2958 ft | 225 kts | 156° |
| 2026-05-07 18:52 | 42.03323 | 12.13514 | 2978 ft | 226 kts | 160° |
| 2026-05-07 18:52 | 42.01856 | 12.14149 | 2979 ft | 217 kts | 161° |
| 2026-05-07 18:53 | 42.00452 | 12.14732 | 2985 ft | 207 kts | 161° |
| 2026-05-07 18:53 | 41.99075 | 12.15302 | 2942 ft | 200 kts | 161° |
| 2026-05-07 18:53 | 41.97777 | 12.15841 | 2753 ft | 192 kts | 161° |
| 2026-05-07 18:53 | 41.96553 | 12.16351 | 2726 ft | 173 kts | 161° |
| 2026-05-07 18:54 | 41.95456 | 12.16809 | 2697 ft | 160 kts | 160° |
| 2026-05-07 18:54 | 41.94402 | 12.17252 | 2584 ft | 160 kts | 160° |
| 2026-05-07 18:54 | 41.93336 | 12.17699 | 2369 ft | 159 kts | 160° |
| 2026-05-07 18:54 | 41.92281 | 12.18142 | 2193 ft | 159 kts | 161° |
| 2026-05-07 18:55 | 41.91228 | 12.18584 | 1975 ft | 159 kts | 161° |
| 2026-05-07 18:55 | 41.90161 | 12.19030 | 1763 ft | 156 kts | 161° |
| 2026-05-07 18:55 | 41.89160 | 12.19447 | 1535 ft | 147 kts | 162° |
| 2026-05-07 18:55 | 41.88193 | 12.19848 | 1349 ft | 146 kts | 162° |
| 2026-05-07 18:56 | 41.87218 | 12.20256 | 1165 ft | 145 kts | 161° |
| 2026-05-07 18:56 | 41.86259 | 12.20660 | 982 ft | 144 kts | 162° |
| 2026-05-07 18:56 | 41.85301 | 12.21061 | 793 ft | 143 kts | 162° |
| 2026-05-07 18:56 | 41.84356 | 12.21460 | 613 ft | 143 kts | 162° |
| 2026-05-07 18:57 | 41.83418 | 12.21873 | 419 ft | 142 kts | 163° |
| 2026-05-07 18:57 | 41.82473 | 12.22266 | 229 ft | 142 kts | 164° |
| 2026-05-07 18:57 | 41.81542 | 12.22651 | 55 ft | 141 kts | 164° |
| 2026-05-07 18:57 | 41.80648 | 12.23018 | 15 ft | 118 kts | 164° |
| 2026-05-07 18:58 | 41.80020 | 12.23272 | 14 ft | 69 kts | 163° |
| 2026-05-07 18:58 | 41.79682 | 12.23428 | 14 ft | 44 kts | 159° |
| 2026-05-07 18:58 | 41.79486 | 12.23575 | 14 ft | 28 kts | 140° |
| 2026-05-07 18:58 | 41.79364 | 12.23751 | 15 ft | 21 kts | 131° |
| 2026-05-07 18:59 | 41.79382 | 12.23876 | 15 ft | 19 kts | 347° |
| 2026-05-07 18:59 | 41.79505 | 12.23815 | 15 ft | 18 kts | 345° |
| 2026-05-07 18:59 | 41.79630 | 12.23767 | 15 ft | 18 kts | 343° |
| 2026-05-07 18:59 | 41.79754 | 12.23717 | 15 ft | 18 kts | 342° |
| 2026-05-07 19:00 | 41.79847 | 12.23783 | 15 ft | 17 kts | 71° |
| 2026-05-07 19:00 | 41.79888 | 12.23934 | 15 ft | 17 kts | 69° |
| 2026-05-07 19:00 | 41.79916 | 12.24091 | 15 ft | 17 kts | 90° |
| 2026-05-07 19:00 | 41.79938 | 12.24249 | 15 ft | 17 kts | 68° |
| 2026-05-07 19:01 | 41.79979 | 12.24404 | 15 ft | 18 kts | 69° |
| 2026-05-07 19:01 | 41.80028 | 12.24568 | 15 ft | 19 kts | 69° |
| 2026-05-07 19:01 | 41.80073 | 12.24742 | 15 ft | 20 kts | 70° |
| 2026-05-07 19:01 | 41.80108 | 12.24919 | 15 ft | 21 kts | 84° |
| 2026-05-07 19:02 | 41.80091 | 12.25104 | 16 ft | 21 kts | 105° |
| 2026-05-07 19:02 | 41.80040 | 12.25291 | 16 ft | 22 kts | 113° |
| 2026-05-07 19:02 | 41.79979 | 12.25468 | 16 ft | 22 kts | 117° |